O John Clark Restricted Landing Area

Jump to: basic info | weather | comments

Related pages: nearby airports | nearby navaids | notams | map

Basic information (top)

Codes: 7IL2
Location: lon 42.368401, lat -87.991699, elev 790 ft / 241 m msl
Status: small_airport

Weather (top)

Current conditions for Waukegan Regional Airport 6nm (12km) ENE (rec'd 2014/04/24 17:52Z):

KUGN 241752Z 13014G22KT 10SM FEW080 11/01 A2989 RMK AO2 SLP127 T01060006 10128 20039 58024

Airport forecast for Kenosha Regional Airport 14nm (26km) NNE (rec'd 2014/04/24 18:51Z):

TAF KENW 241740Z 2418/2518 13015G25KT P6SM BKN090 BKN150 
     FM250000 13014G24KT 6SM -SHRA OVC060 WS020/15040KT 
     FM250300 13010KT 5SM -RA SCT030 OVC050 WS020/16040KT 
     FM250600 13006KT 4SM -RA BR OVC025 
     FM251000 VRB05KT P6SM SCT020 BKN100 
     FM251200 33006KT P6SM SKC 
     FM251700 28014G24KT P6SM SKC

Latest comments (top)

No comments yet for O John Clark Restricted Landing Area

More... (top)

See also NOTAMs and nearby airports and navaids, or visit the O John Clark Restricted Landing Area page at the main OurAirports website..